createdAt,value
2023-01-11T00:00:04.891Z,5.23
2023-01-11T00:00:14.921Z,5.23
2023-01-11T00:00:24.883Z,5.23
2023-01-11T00:00:34.962Z,5.22
2023-01-11T00:00:44.853Z,5.23
2023-01-11T00:00:54.956Z,5.23
2023-01-11T00:01:04.910Z,5.22
2023-01-11T00:01:14.901Z,5.23
2023-01-11T00:01:24.853Z,5.22
2023-01-11T00:01:34.906Z,5.23
2023-01-11T00:01:44.881Z,5.23
2023-01-11T00:01:54.975Z,5.23
2023-01-11T00:02:04.938Z,5.23
2023-01-11T00:02:14.936Z,5.23
2023-01-11T00:02:24.949Z,5.22
2023-01-11T00:02:34.991Z,5.22
2023-01-11T00:02:44.947Z,5.23
2023-01-11T00:02:54.832Z,5.23
2023-01-11T00:03:04.952Z,5.23
2023-01-11T00:03:14.881Z,5.23
2023-01-11T00:03:24.880Z,5.24
2023-01-11T00:03:34.950Z,5.24
2023-01-11T00:03:44.941Z,5.24
2023-01-11T00:03:54.938Z,5.24
2023-01-11T00:04:04.976Z,5.26
2023-01-11T00:04:14.937Z,5.24
2023-01-11T00:04:24.882Z,5.24
2023-01-11T00:04:34.872Z,5.24
2023-01-11T00:04:44.991Z,5.24
2023-01-11T00:04:54.925Z,5.26
2023-01-11T00:05:04.938Z,5.24
2023-01-11T00:05:14.903Z,5.26
2023-01-11T00:05:24.950Z,5.26
2023-01-11T00:05:34.964Z,5.27
2023-01-11T00:05:45.023Z,5.26
2023-01-11T00:05:54.943Z,5.26
2023-01-11T00:06:04.982Z,5.26
2023-01-11T00:06:14.910Z,5.24
2023-01-11T00:06:24.991Z,5.24
2023-01-11T00:06:34.912Z,5.26
2023-01-11T00:06:44.935Z,5.26
2023-01-11T00:06:54.911Z,5.26
2023-01-11T00:07:04.886Z,5.26
2023-01-11T00:07:14.879Z,5.26
2023-01-11T00:07:24.831Z,5.26
2023-01-11T00:07:34.877Z,5.26
2023-01-11T00:07:44.923Z,5.27
2023-01-11T00:07:54.850Z,5.24
2023-01-11T00:08:04.980Z,5.27
2023-01-11T00:08:14.891Z,5.27
2023-01-11T00:08:24.865Z,5.26
2023-01-11T00:08:34.948Z,5.27
2023-01-11T00:08:44.914Z,5.26
2023-01-11T00:08:54.959Z,5.27
2023-01-11T00:09:04.846Z,5.27
2023-01-11T00:09:14.938Z,5.27
2023-01-11T00:09:24.964Z,5.26
2023-01-11T00:09:34.932Z,5.27
2023-01-11T00:09:44.964Z,5.26
2023-01-11T00:09:54.951Z,5.27
2023-01-11T00:10:04.991Z,5.27
2023-01-11T00:10:14.842Z,5.27
2023-01-11T00:10:24.929Z,5.27
2023-01-11T00:10:34.862Z,5.27
2023-01-11T00:10:44.941Z,5.27
2023-01-11T00:10:54.934Z,5.27
2023-01-11T00:11:04.856Z,5.27
2023-01-11T00:11:14.881Z,5.26
2023-01-11T00:11:24.942Z,5.27
2023-01-11T00:11:34.912Z,5.26
2023-01-11T00:11:44.942Z,5.26
2023-01-11T00:11:54.972Z,5.24
2023-01-11T00:12:04.843Z,5.26
2023-01-11T00:12:14.932Z,5.27
2023-01-11T00:12:24.877Z,5.26
2023-01-11T00:12:34.929Z,5.26
2023-01-11T00:12:44.934Z,5.26
2023-01-11T00:12:54.905Z,5.26
2023-01-11T00:13:04.885Z,5.26
2023-01-11T00:13:14.888Z,5.26
2023-01-11T00:13:24.923Z,5.24
2023-01-11T00:13:34.913Z,5.26
2023-01-11T00:13:44.866Z,5.26
2023-01-11T00:13:54.925Z,5.26
2023-01-11T00:14:05.010Z,5.26
2023-01-11T00:14:14.956Z,5.24
2023-01-11T00:14:24.958Z,5.26
2023-01-11T00:14:34.869Z,5.26
2023-01-11T00:14:44.838Z,5.27
2023-01-11T00:14:54.855Z,5.24
2023-01-11T00:15:04.935Z,5.26
2023-01-11T00:15:14.970Z,5.27
2023-01-11T00:15:24.963Z,5.26
2023-01-11T00:15:34.921Z,5.27
2023-01-11T00:15:44.925Z,5.26
2023-01-11T00:15:54.987Z,5.26
2023-01-11T00:16:04.983Z,5.27
2023-01-11T00:16:14.935Z,5.27
2023-01-11T00:16:25.020Z,5.26
2023-01-11T00:16:34.887Z,5.27
2023-01-11T00:16:44.956Z,5.27
2023-01-11T00:16:54.850Z,5.27
2023-01-11T00:17:04.944Z,5.29
2023-01-11T00:17:14.854Z,5.27
2023-01-11T00:17:24.959Z,5.29
2023-01-11T00:17:34.844Z,5.29
2023-01-11T00:17:44.879Z,5.30
2023-01-11T00:17:54.954Z,5.29
2023-01-11T00:18:04.929Z,5.30
2023-01-11T00:18:14.929Z,5.30
2023-01-11T00:18:24.925Z,5.30
2023-01-11T00:18:34.924Z,5.30
2023-01-11T00:18:44.892Z,5.32
2023-01-11T00:18:54.895Z,5.30
2023-01-11T00:19:04.928Z,5.32
2023-01-11T00:19:14.927Z,5.30
2023-01-11T00:19:24.845Z,5.30
2023-01-11T00:19:34.959Z,5.32
2023-01-11T00:19:44.949Z,5.32
2023-01-11T00:19:54.916Z,5.32
2023-01-11T00:20:04.969Z,5.32
2023-01-11T00:20:14.878Z,5.33
2023-01-11T00:20:24.951Z,5.32
2023-01-11T00:20:34.927Z,5.32
2023-01-11T00:20:44.919Z,5.33
2023-01-11T00:20:54.933Z,5.32
2023-01-11T00:21:04.834Z,5.35
2023-01-11T00:21:14.970Z,5.33
2023-01-11T00:21:24.935Z,5.33
2023-01-11T00:21:34.960Z,5.33
2023-01-11T00:21:44.899Z,5.35
2023-01-11T00:21:54.920Z,5.33
2023-01-11T00:22:04.894Z,5.35
2023-01-11T00:22:14.832Z,5.35
2023-01-11T00:22:24.881Z,5.37
2023-01-11T00:22:34.889Z,5.35
2023-01-11T00:22:44.875Z,5.37
2023-01-11T00:22:54.840Z,5.37
2023-01-11T00:23:04.907Z,5.37
2023-01-11T00:23:14.836Z,5.37
2023-01-11T00:23:24.856Z,5.37
2023-01-11T00:23:34.988Z,5.37
2023-01-11T00:23:44.844Z,5.37
2023-01-11T00:23:54.857Z,5.37
2023-01-11T00:24:04.831Z,5.38
2023-01-11T00:24:14.910Z,5.40
2023-01-11T00:24:24.841Z,5.38
2023-01-11T00:24:34.922Z,5.38
2023-01-11T00:24:44.863Z,5.38
2023-01-11T00:24:54.846Z,5.37
2023-01-11T00:25:04.853Z,5.38
2023-01-11T00:25:14.846Z,5.38
2023-01-11T00:25:24.876Z,5.37
2023-01-11T00:25:34.868Z,5.38
2023-01-11T00:25:44.866Z,5.37
2023-01-11T00:25:54.945Z,5.38
2023-01-11T00:26:04.975Z,5.40
2023-01-11T00:26:14.935Z,5.38
2023-01-11T00:26:24.944Z,5.40
2023-01-11T00:26:34.867Z,5.40
2023-01-11T00:26:44.864Z,5.38
2023-01-11T00:26:54.868Z,5.40
2023-01-11T00:27:04.964Z,5.38
2023-01-11T00:27:14.837Z,5.40
2023-01-11T00:27:24.899Z,5.40
2023-01-11T00:27:34.829Z,5.40
2023-01-11T00:27:44.885Z,5.40
2023-01-11T00:27:54.885Z,5.40
2023-01-11T00:28:04.873Z,5.41
2023-01-11T00:28:14.961Z,5.41
2023-01-11T00:28:24.905Z,5.42
2023-01-11T00:28:34.846Z,5.41
2023-01-11T00:28:44.946Z,5.42
2023-01-11T00:28:54.951Z,5.41
2023-01-11T00:29:04.939Z,5.42
2023-01-11T00:29:14.890Z,5.42
2023-01-11T00:29:24.909Z,5.42
2023-01-11T00:29:34.939Z,5.42
2023-01-11T00:29:44.855Z,5.42
2023-01-11T00:29:54.838Z,5.42
2023-01-11T00:30:04.926Z,5.44
2023-01-11T00:30:14.924Z,5.44
2023-01-11T00:30:24.955Z,5.42
2023-01-11T00:30:34.925Z,5.42
2023-01-11T00:30:44.861Z,5.42
2023-01-11T00:30:54.969Z,5.42
2023-01-11T00:31:04.895Z,5.42
2023-01-11T00:31:14.902Z,5.44
2023-01-11T00:31:24.942Z,5.44
2023-01-11T00:31:34.930Z,5.44
2023-01-11T00:31:44.965Z,5.42
2023-01-11T00:31:54.841Z,5.42
2023-01-11T00:32:04.926Z,5.44
2023-01-11T00:32:14.904Z,5.44
2023-01-11T00:32:24.865Z,5.44
2023-01-11T00:32:34.938Z,5.42
2023-01-11T00:32:44.862Z,5.42
2023-01-11T00:32:54.969Z,5.42
2023-01-11T00:33:04.899Z,5.41
2023-01-11T00:33:14.864Z,5.41
2023-01-11T00:33:24.887Z,5.42
2023-01-11T00:33:34.848Z,5.44
2023-01-11T00:33:44.953Z,5.42
2023-01-11T00:33:54.877Z,5.42
2023-01-11T00:34:04.928Z,5.41
2023-01-11T00:34:14.880Z,5.42
2023-01-11T00:34:24.875Z,5.42
2023-01-11T00:34:34.941Z,5.44
2023-01-11T00:34:44.901Z,5.42
2023-01-11T00:34:54.998Z,5.44
2023-01-11T00:35:04.864Z,5.42
2023-01-11T00:35:14.851Z,5.44
2023-01-11T00:35:24.854Z,5.42
2023-01-11T00:35:34.884Z,5.42
2023-01-11T00:35:44.916Z,5.42
2023-01-11T00:35:54.860Z,5.41
2023-01-11T00:36:04.909Z,5.42
2023-01-11T00:36:14.968Z,5.41
2023-01-11T00:36:24.952Z,5.41
2023-01-11T00:36:34.893Z,5.42
2023-01-11T00:36:44.904Z,5.42
2023-01-11T00:36:54.840Z,5.42
2023-01-11T00:37:04.883Z,5.41
2023-01-11T00:37:14.846Z,5.41
2023-01-11T00:37:24.951Z,5.44
2023-01-11T00:37:34.945Z,5.42
2023-01-11T00:37:44.949Z,5.44
2023-01-11T00:37:54.862Z,5.44
2023-01-11T00:38:04.883Z,5.44
2023-01-11T00:38:14.835Z,5.44
2023-01-11T00:38:24.911Z,5.44
2023-01-11T00:38:34.878Z,5.44
2023-01-11T00:38:44.851Z,5.44
2023-01-11T00:38:54.866Z,5.45
2023-01-11T00:39:04.888Z,5.45
2023-01-11T00:39:14.867Z,5.45
2023-01-11T00:39:24.965Z,5.45
2023-01-11T00:39:34.857Z,5.45
2023-01-11T00:39:44.944Z,5.45
2023-01-11T00:39:54.934Z,5.47
2023-01-11T00:40:04.828Z,5.45
2023-01-11T00:40:14.906Z,5.47
2023-01-11T00:40:24.885Z,5.48
2023-01-11T00:40:34.874Z,5.47
2023-01-11T00:40:44.906Z,5.47
2023-01-11T00:40:54.910Z,5.47
2023-01-11T00:41:04.845Z,5.47
2023-01-11T00:41:14.917Z,5.47
2023-01-11T00:41:24.852Z,5.47
2023-01-11T00:41:34.898Z,5.47
2023-01-11T00:41:44.891Z,5.47
2023-01-11T00:41:54.933Z,5.47
2023-01-11T00:42:04.910Z,5.47
2023-01-11T00:42:14.866Z,5.45
2023-01-11T00:42:24.952Z,5.47
2023-01-11T00:42:34.896Z,5.47
2023-01-11T00:42:44.919Z,5.45
2023-01-11T00:42:54.853Z,5.44
2023-01-11T00:43:04.873Z,5.47
2023-01-11T00:43:14.846Z,5.48
2023-01-11T00:43:24.887Z,5.47
2023-01-11T00:43:34.889Z,5.47
2023-01-11T00:43:44.899Z,5.45
2023-01-11T00:43:54.961Z,5.48
2023-01-11T00:44:04.902Z,5.48
2023-01-11T00:44:14.921Z,5.49
2023-01-11T00:44:24.847Z,5.49
2023-01-11T00:44:34.968Z,5.48
2023-01-11T00:44:44.848Z,5.48
2023-01-11T00:44:54.962Z,5.49
2023-01-11T00:45:04.992Z,5.48
2023-01-11T00:45:14.862Z,5.48
2023-01-11T00:45:24.979Z,5.49
2023-01-11T00:45:34.895Z,5.48
2023-01-11T00:45:44.848Z,5.49
2023-01-11T00:45:54.895Z,5.49
2023-01-11T00:46:05.001Z,5.49
2023-01-11T00:46:15.001Z,5.49
2023-01-11T00:46:24.962Z,5.51
2023-01-11T00:46:34.885Z,5.49
2023-01-11T00:46:44.835Z,5.49
2023-01-11T00:46:54.908Z,5.51
2023-01-11T00:47:04.894Z,5.52
2023-01-11T00:47:14.974Z,5.49
2023-01-11T00:47:24.905Z,5.49
2023-01-11T00:47:34.845Z,5.49
2023-01-11T00:47:44.907Z,5.51
2023-01-11T00:47:54.953Z,5.51
2023-01-11T00:48:05.017Z,5.51
2023-01-11T00:48:14.955Z,5.52
2023-01-11T00:48:24.876Z,5.51
2023-01-11T00:48:34.938Z,5.51
2023-01-11T00:48:44.948Z,5.51
2023-01-11T00:48:54.916Z,5.52
2023-01-11T00:49:04.910Z,5.52
2023-01-11T00:49:14.831Z,5.51
2023-01-11T00:49:24.959Z,5.51
2023-01-11T00:49:34.861Z,5.52
2023-01-11T00:49:44.935Z,5.51
2023-01-11T00:49:54.840Z,5.51
2023-01-11T00:50:04.954Z,5.52
2023-01-11T00:50:14.911Z,5.52
2023-01-11T00:50:24.891Z,5.52
2023-01-11T00:50:34.917Z,5.52
2023-01-11T00:50:44.888Z,5.52
2023-01-11T00:50:54.871Z,5.51
2023-01-11T00:51:04.974Z,5.52
2023-01-11T00:51:14.869Z,5.51
2023-01-11T00:51:24.858Z,5.51
2023-01-11T00:51:34.918Z,5.52
2023-01-11T00:51:44.920Z,5.51
2023-01-11T00:51:54.832Z,5.51
2023-01-11T00:52:04.841Z,5.52
2023-01-11T00:52:14.871Z,5.51
2023-01-11T00:52:24.949Z,5.52
2023-01-11T00:52:34.932Z,5.51
2023-01-11T00:52:44.871Z,5.51
2023-01-11T00:52:54.966Z,5.51
2023-01-11T00:53:04.850Z,5.51
2023-01-11T00:53:14.836Z,5.51
2023-01-11T00:53:24.878Z,5.49
2023-01-11T00:53:34.946Z,5.51
2023-01-11T00:53:44.874Z,5.51
2023-01-11T00:53:54.904Z,5.49
2023-01-11T00:54:04.935Z,5.51
2023-01-11T00:54:14.831Z,5.49
2023-01-11T00:54:24.916Z,5.51
2023-01-11T00:54:34.832Z,5.51
2023-01-11T00:54:44.953Z,5.51
2023-01-11T00:54:54.915Z,5.49
2023-01-11T00:55:04.957Z,5.49
2023-01-11T00:55:14.907Z,5.49
2023-01-11T00:55:24.861Z,5.49
2023-01-11T00:55:34.873Z,5.49
2023-01-11T00:55:44.917Z,5.49
2023-01-11T00:55:54.904Z,5.49
2023-01-11T00:56:04.918Z,5.51
2023-01-11T00:56:14.983Z,5.49
2023-01-11T00:56:24.935Z,5.49
2023-01-11T00:56:34.947Z,5.49
2023-01-11T00:56:44.948Z,5.49
2023-01-11T00:56:54.928Z,5.48
2023-01-11T00:57:04.880Z,5.51
2023-01-11T00:57:14.995Z,5.49
2023-01-11T00:57:24.911Z,5.49
2023-01-11T00:57:34.940Z,5.49
2023-01-11T00:57:44.951Z,5.49
2023-01-11T00:57:54.885Z,5.51
2023-01-11T00:58:04.831Z,5.49
2023-01-11T00:58:14.928Z,5.49
2023-01-11T00:58:24.908Z,5.51
2023-01-11T00:58:34.865Z,5.49
2023-01-11T00:58:44.932Z,5.49
2023-01-11T00:58:54.881Z,5.51
2023-01-11T00:59:04.884Z,5.51
2023-01-11T00:59:14.900Z,5.51
2023-01-11T00:59:24.979Z,5.51
2023-01-11T00:59:34.878Z,5.51
2023-01-11T00:59:44.872Z,5.51
2023-01-11T00:59:54.917Z,5.51
2023-01-11T01:00:04.969Z,5.51
2023-01-11T01:00:14.913Z,5.51
2023-01-11T01:00:24.845Z,5.52
2023-01-11T01:00:34.866Z,5.52
2023-01-11T01:00:44.901Z,5.52
2023-01-11T01:00:54.928Z,5.52
2023-01-11T01:01:05.020Z,5.52
2023-01-11T01:01:14.955Z,5.52
2023-01-11T01:01:24.871Z,5.52
2023-01-11T01:01:35.060Z,5.51
2023-01-11T01:01:44.965Z,5.52
2023-01-11T01:01:54.880Z,5.55
2023-01-11T01:02:04.917Z,5.51
2023-01-11T01:02:14.949Z,5.55
2023-01-11T01:02:24.985Z,5.55
2023-01-11T01:02:34.915Z,5.55
2023-01-11T01:02:44.946Z,5.55
2023-01-11T01:02:54.993Z,5.55
2023-01-11T01:03:04.862Z,5.55
2023-01-11T01:03:14.948Z,5.55
2023-01-11T01:03:24.889Z,5.55
2023-01-11T01:03:34.836Z,5.56
2023-01-11T01:03:44.857Z,5.55
2023-01-11T01:03:54.946Z,5.55
2023-01-11T01:04:04.966Z,5.55
2023-01-11T01:04:14.963Z,5.56
2023-01-11T01:04:24.918Z,5.55
2023-01-11T01:04:34.894Z,5.56
2023-01-11T01:04:44.906Z,5.55
2023-01-11T01:04:54.904Z,5.56
2023-01-11T01:05:04.928Z,5.56
2023-01-11T01:05:14.931Z,5.55
2023-01-11T01:05:24.852Z,5.56
2023-01-11T01:05:34.840Z,5.55
2023-01-11T01:05:44.895Z,5.56
2023-01-11T01:05:54.964Z,5.56
2023-01-11T01:06:04.880Z,5.56
2023-01-11T01:06:14.926Z,5.56
2023-01-11T01:06:24.880Z,5.55
2023-01-11T01:06:34.988Z,5.56
2023-01-11T01:06:44.998Z,5.58
2023-01-11T01:06:55.095Z,5.56
2023-01-11T01:07:04.965Z,5.56
2023-01-11T01:07:14.936Z,5.55
2023-01-11T01:07:24.902Z,5.55
2023-01-11T01:07:34.956Z,5.55
2023-01-11T01:07:44.862Z,5.56
2023-01-11T01:07:54.932Z,5.56
2023-01-11T01:08:04.966Z,5.55
2023-01-11T01:08:14.908Z,5.56
2023-01-11T01:08:24.939Z,5.55
2023-01-11T01:08:34.961Z,5.56
2023-01-11T01:08:44.831Z,5.55
2023-01-11T01:08:54.866Z,5.55
2023-01-11T01:09:04.927Z,5.56
2023-01-11T01:09:14.896Z,5.56
2023-01-11T01:09:24.947Z,5.55
2023-01-11T01:09:34.961Z,5.56
2023-01-11T01:09:44.925Z,5.55
2023-01-11T01:09:54.932Z,5.56
2023-01-11T01:10:04.905Z,5.56
2023-01-11T01:10:14.870Z,5.55
2023-01-11T01:10:24.884Z,5.56
2023-01-11T01:10:34.955Z,5.56
2023-01-11T01:10:44.872Z,5.58
2023-01-11T01:10:54.958Z,5.58
2023-01-11T01:11:04.879Z,5.56
2023-01-11T01:11:14.839Z,5.56
2023-01-11T01:11:24.951Z,5.58
2023-01-11T01:11:34.843Z,5.56
2023-01-11T01:11:44.839Z,5.56
2023-01-11T01:11:54.959Z,5.58
2023-01-11T01:12:04.873Z,5.56
2023-01-11T01:12:14.954Z,5.56
2023-01-11T01:12:24.899Z,5.56
2023-01-11T01:12:34.897Z,5.58
2023-01-11T01:12:44.949Z,5.58
2023-01-11T01:12:54.834Z,5.58
2023-01-11T01:13:04.846Z,5.56
2023-01-11T01:13:14.907Z,5.58
2023-01-11T01:13:24.829Z,5.59
2023-01-11T01:13:34.929Z,5.59
2023-01-11T01:13:44.926Z,5.58
2023-01-11T01:13:54.893Z,5.58
2023-01-11T01:14:04.857Z,5.58
2023-01-11T01:14:14.841Z,5.58
2023-01-11T01:14:24.900Z,5.58
2023-01-11T01:14:34.905Z,5.58
2023-01-11T01:14:44.901Z,5.58
2023-01-11T01:14:54.858Z,5.58
2023-01-11T01:15:04.971Z,5.58
2023-01-11T01:15:14.895Z,5.58
2023-01-11T01:15:24.908Z,5.60
2023-01-11T01:15:34.973Z,5.58
2023-01-11T01:15:44.962Z,5.58
2023-01-11T01:15:54.983Z,5.58
2023-01-11T01:16:05.053Z,5.59
2023-01-11T01:16:15.006Z,5.59
2023-01-11T01:16:24.865Z,5.58
2023-01-11T01:16:34.945Z,5.59
2023-01-11T01:16:44.934Z,5.58
2023-01-11T01:16:54.848Z,5.58
2023-01-11T01:17:04.903Z,5.58
2023-01-11T01:17:14.945Z,5.59
2023-01-11T01:17:24.838Z,5.59
2023-01-11T01:17:34.886Z,5.59
2023-01-11T01:17:44.899Z,5.59
2023-01-11T01:17:54.902Z,5.59
2023-01-11T01:18:04.922Z,5.62
2023-01-11T01:18:14.833Z,5.60
2023-01-11T01:18:24.891Z,5.60
2023-01-11T01:18:34.972Z,5.60
2023-01-11T01:18:44.924Z,5.62
2023-01-11T01:18:54.935Z,5.62
2023-01-11T01:19:04.830Z,5.60
2023-01-11T01:19:14.991Z,5.60
2023-01-11T01:19:24.949Z,5.62
2023-01-11T01:19:34.961Z,5.62
2023-01-11T01:19:44.933Z,5.62
2023-01-11T01:19:54.937Z,5.62
2023-01-11T01:20:04.957Z,5.62
2023-01-11T01:20:14.920Z,5.62
2023-01-11T01:20:24.902Z,5.62
2023-01-11T01:20:34.905Z,5.63
2023-01-11T01:20:44.875Z,5.63
2023-01-11T01:20:54.895Z,5.63
2023-01-11T01:21:04.832Z,5.63
2023-01-11T01:21:14.846Z,5.63
2023-01-11T01:21:24.863Z,5.63
2023-01-11T01:21:34.898Z,5.63
2023-01-11T01:21:44.913Z,5.63
2023-01-11T01:21:54.958Z,5.63
2023-01-11T01:22:04.944Z,5.63
2023-01-11T01:22:14.891Z,5.65
2023-01-11T01:22:24.834Z,5.65
2023-01-11T01:22:34.908Z,5.65
2023-01-11T01:22:44.828Z,5.65
2023-01-11T01:22:54.900Z,5.65
2023-01-11T01:23:04.945Z,5.66
2023-01-11T01:23:14.847Z,5.65
2023-01-11T01:23:24.956Z,5.66
2023-01-11T01:23:34.950Z,5.66
2023-01-11T01:23:44.925Z,5.67
2023-01-11T01:23:54.847Z,5.67
2023-01-11T01:24:04.877Z,5.67
2023-01-11T01:24:14.837Z,5.67
2023-01-11T01:24:24.952Z,5.67
2023-01-11T01:24:34.878Z,5.69
2023-01-11T01:24:44.859Z,5.67
2023-01-11T01:24:54.967Z,5.69
2023-01-11T01:25:04.952Z,5.67
2023-01-11T01:25:14.899Z,5.69
2023-01-11T01:25:24.836Z,5.69
2023-01-11T01:25:34.840Z,5.69
2023-01-11T01:25:44.952Z,5.70
2023-01-11T01:25:54.905Z,5.69
2023-01-11T01:26:04.918Z,5.69
2023-01-11T01:26:14.922Z,5.70
2023-01-11T01:26:24.969Z,5.73
2023-01-11T01:26:34.889Z,5.70
2023-01-11T01:26:44.942Z,5.70
2023-01-11T01:26:54.960Z,5.73
2023-01-11T01:27:04.844Z,5.73
2023-01-11T01:27:14.955Z,5.73
2023-01-11T01:27:24.914Z,5.73
2023-01-11T01:27:34.838Z,5.73
2023-01-11T01:27:44.966Z,5.74
2023-01-11T01:27:54.886Z,5.74
2023-01-11T01:28:04.838Z,5.74
2023-01-11T01:28:14.959Z,5.75
2023-01-11T01:28:24.934Z,5.75
2023-01-11T01:28:34.886Z,5.77
2023-01-11T01:28:44.828Z,5.75
2023-01-11T01:28:54.860Z,5.75
2023-01-11T01:29:04.885Z,5.77
2023-01-11T01:29:14.835Z,5.78
2023-01-11T01:29:24.939Z,5.78
2023-01-11T01:29:34.950Z,5.80
2023-01-11T01:29:44.856Z,5.78
2023-01-11T01:29:54.887Z,5.78
2023-01-11T01:30:04.876Z,5.78
2023-01-11T01:30:14.904Z,5.78
2023-01-11T01:30:24.940Z,5.80
2023-01-11T01:30:34.894Z,5.78
2023-01-11T01:30:44.831Z,5.80
2023-01-11T01:30:54.860Z,5.80
2023-01-11T01:31:05.004Z,5.80
2023-01-11T01:31:14.898Z,5.80
2023-01-11T01:31:24.900Z,5.80
2023-01-11T01:31:34.946Z,5.81
2023-01-11T01:31:44.878Z,5.81
2023-01-11T01:31:54.913Z,5.80
2023-01-11T01:32:04.948Z,5.81
2023-01-11T01:32:14.890Z,5.81
2023-01-11T01:32:24.898Z,5.81
2023-01-11T01:32:34.828Z,5.81
2023-01-11T01:32:44.873Z,5.83
2023-01-11T01:32:54.870Z,5.84
2023-01-11T01:33:04.900Z,5.81
2023-01-11T01:33:14.937Z,5.83
2023-01-11T01:33:24.845Z,5.84
2023-01-11T01:33:34.919Z,5.84
2023-01-11T01:33:44.895Z,5.84
2023-01-11T01:33:54.879Z,5.85
2023-01-11T01:34:04.963Z,5.84
2023-01-11T01:34:14.879Z,5.83
2023-01-11T01:34:24.927Z,5.84
2023-01-11T01:34:34.830Z,5.84
2023-01-11T01:34:44.842Z,5.85
2023-01-11T01:34:54.843Z,5.85
2023-01-11T01:35:04.955Z,5.85
2023-01-11T01:35:14.891Z,5.85
2023-01-11T01:35:24.949Z,5.85
2023-01-11T01:35:34.886Z,5.85
2023-01-11T01:35:44.869Z,5.88
2023-01-11T01:35:54.936Z,5.88
2023-01-11T01:36:04.967Z,5.88
2023-01-11T01:36:14.902Z,5.88
2023-01-11T01:36:24.852Z,5.90
2023-01-11T01:36:34.869Z,5.90
2023-01-11T01:36:44.919Z,5.92
2023-01-11T01:36:54.891Z,5.90
2023-01-11T01:37:04.979Z,5.90
2023-01-11T01:37:14.953Z,5.92
2023-01-11T01:37:24.916Z,5.92
2023-01-11T01:37:34.864Z,5.92
2023-01-11T01:37:44.990Z,5.92
2023-01-11T01:37:54.943Z,5.92
2023-01-11T01:38:04.967Z,5.92
2023-01-11T01:38:14.885Z,5.93
2023-01-11T01:38:24.929Z,5.95
2023-01-11T01:38:34.960Z,5.93
2023-01-11T01:38:44.896Z,5.93
2023-01-11T01:38:54.840Z,5.93
2023-01-11T01:39:04.881Z,5.93
2023-01-11T01:39:14.959Z,5.93
2023-01-11T01:39:24.965Z,5.93
2023-01-11T01:39:34.896Z,5.95
2023-01-11T01:39:44.937Z,5.95
2023-01-11T01:39:54.846Z,5.95
2023-01-11T01:40:04.873Z,5.93
2023-01-11T01:40:14.946Z,5.95
2023-01-11T01:40:24.932Z,5.95
2023-01-11T01:40:34.841Z,5.96
2023-01-11T01:40:44.909Z,5.96
2023-01-11T01:40:54.909Z,5.95
2023-01-11T01:41:04.978Z,5.95
2023-01-11T01:41:14.965Z,5.95
2023-01-11T01:41:24.911Z,5.95
2023-01-11T01:41:34.892Z,5.95
2023-01-11T01:41:44.889Z,5.96
2023-01-11T01:41:54.938Z,5.95
2023-01-11T01:42:04.892Z,5.96
2023-01-11T01:42:14.836Z,5.96
2023-01-11T01:42:24.975Z,5.96
2023-01-11T01:42:34.981Z,5.95
2023-01-11T01:42:44.938Z,5.98
2023-01-11T01:42:54.971Z,5.98
2023-01-11T01:43:04.925Z,5.98
2023-01-11T01:43:14.853Z,5.96
2023-01-11T01:43:24.901Z,5.98
2023-01-11T01:43:34.895Z,5.98
2023-01-11T01:43:47.404Z,5.98
2023-01-11T01:43:54.849Z,5.98
2023-01-11T01:44:04.929Z,5.99
2023-01-11T01:44:14.925Z,5.99
2023-01-11T01:44:24.913Z,5.98
2023-01-11T01:44:34.889Z,5.99
2023-01-11T01:44:44.827Z,5.98
2023-01-11T01:44:54.992Z,5.98
2023-01-11T01:45:04.895Z,5.98
2023-01-11T01:45:14.843Z,5.98
2023-01-11T01:45:24.957Z,5.96
2023-01-11T01:45:34.873Z,5.98
2023-01-11T01:45:44.886Z,5.96
2023-01-11T01:45:54.859Z,5.98
2023-01-11T01:46:04.855Z,5.98
2023-01-11T01:46:14.924Z,5.98
2023-01-11T01:46:24.894Z,5.98
2023-01-11T01:46:35.003Z,5.99
2023-01-11T01:46:44.967Z,5.98
2023-01-11T01:46:54.875Z,5.98
2023-01-11T01:47:04.927Z,5.99
2023-01-11T01:47:14.970Z,5.99
2023-01-11T01:47:24.888Z,5.99
2023-01-11T01:47:34.851Z,5.99
2023-01-11T01:47:44.954Z,5.99
2023-01-11T01:47:54.889Z,6.01
2023-01-11T01:48:04.861Z,6.01
2023-01-11T01:48:14.918Z,6.01
2023-01-11T01:48:24.956Z,6.01
2023-01-11T01:48:34.838Z,5.99
2023-01-11T01:48:44.935Z,6.01
2023-01-11T01:48:54.881Z,6.02
2023-01-11T01:49:04.859Z,6.01
2023-01-11T01:49:14.934Z,6.01
2023-01-11T01:49:24.859Z,6.01
2023-01-11T01:49:34.916Z,6.01
2023-01-11T01:49:44.934Z,6.02
2023-01-11T01:49:54.939Z,6.02
2023-01-11T01:50:04.877Z,6.02
2023-01-11T01:50:14.885Z,6.02
2023-01-11T01:50:24.962Z,6.02
2023-01-11T01:50:34.953Z,6.03
2023-01-11T01:50:44.897Z,6.02
2023-01-11T01:50:54.854Z,6.02
2023-01-11T01:51:04.937Z,6.01
2023-01-11T01:51:14.935Z,6.01
2023-01-11T01:51:24.860Z,6.02
2023-01-11T01:51:34.891Z,6.02
2023-01-11T01:51:44.884Z,6.02
2023-01-11T01:51:54.864Z,6.02
2023-01-11T01:52:04.905Z,6.02
2023-01-11T01:52:14.856Z,6.03
2023-01-11T01:52:24.899Z,6.02
2023-01-11T01:52:34.880Z,6.02
2023-01-11T01:52:44.867Z,6.02
2023-01-11T01:52:54.869Z,6.02
2023-01-11T01:53:04.952Z,6.02
2023-01-11T01:53:14.931Z,6.03
2023-01-11T01:53:24.916Z,6.03
2023-01-11T01:53:34.899Z,6.02
2023-01-11T01:53:44.853Z,6.03
2023-01-11T01:53:54.965Z,6.03
2023-01-11T01:54:04.942Z,6.03
2023-01-11T01:54:14.910Z,6.05
2023-01-11T01:54:24.900Z,6.05
2023-01-11T01:54:34.829Z,6.05
2023-01-11T01:54:44.946Z,6.06
2023-01-11T01:54:54.852Z,6.05
2023-01-11T01:55:04.939Z,6.03
2023-01-11T01:55:14.936Z,6.05
2023-01-11T01:55:24.936Z,6.05
2023-01-11T01:55:34.963Z,6.05
2023-01-11T01:55:44.849Z,6.05
2023-01-11T01:55:54.904Z,6.05
2023-01-11T01:56:04.948Z,6.05
2023-01-11T01:56:14.883Z,6.05
2023-01-11T01:56:24.836Z,6.05
2023-01-11T01:56:34.920Z,6.05
2023-01-11T01:56:44.940Z,6.05
2023-01-11T01:56:54.918Z,6.03
2023-01-11T01:57:04.912Z,6.05
2023-01-11T01:57:14.961Z,6.03
2023-01-11T01:57:24.860Z,6.05
2023-01-11T01:57:34.856Z,6.06
2023-01-11T01:57:44.893Z,6.06
2023-01-11T01:57:54.919Z,6.06
2023-01-11T01:58:04.850Z,6.06
2023-01-11T01:58:14.930Z,6.06
2023-01-11T01:58:24.863Z,6.05
2023-01-11T01:58:34.943Z,6.06
2023-01-11T01:58:44.881Z,6.06
2023-01-11T01:58:54.925Z,6.08
2023-01-11T01:59:04.909Z,6.08
2023-01-11T01:59:14.919Z,6.08
2023-01-11T01:59:24.941Z,6.06
2023-01-11T01:59:34.963Z,6.08
2023-01-11T01:59:44.856Z,6.08
2023-01-11T01:59:54.918Z,6.08
2023-01-11T02:00:04.839Z,6.08
2023-01-11T02:00:14.860Z,6.06
2023-01-11T02:00:24.920Z,6.06
2023-01-11T02:00:35.197Z,6.08
2023-01-11T02:00:44.928Z,6.08
2023-01-11T02:00:54.845Z,6.05
2023-01-11T02:01:04.924Z,6.06
2023-01-11T02:01:14.855Z,6.08
2023-01-11T02:01:24.858Z,6.06
2023-01-11T02:01:34.870Z,6.08
2023-01-11T02:01:44.971Z,6.06
2023-01-11T02:01:54.892Z,6.06
2023-01-11T02:02:04.896Z,6.05
2023-01-11T02:02:14.941Z,6.06
2023-01-11T02:02:25.005Z,6.05
2023-01-11T02:02:34.901Z,6.05
2023-01-11T02:02:45.100Z,6.05
2023-01-11T02:02:54.947Z,6.06
2023-01-11T02:03:04.886Z,6.03
2023-01-11T02:03:14.896Z,6.06
2023-01-11T02:03:24.853Z,6.05
2023-01-11T02:03:34.846Z,6.05
2023-01-11T02:03:44.861Z,6.05
2023-01-11T02:03:54.862Z,6.03
2023-01-11T02:04:04.836Z,6.03
2023-01-11T02:04:14.906Z,6.03
2023-01-11T02:04:24.925Z,6.05
2023-01-11T02:04:34.965Z,6.03
2023-01-11T02:04:44.832Z,6.05
2023-01-11T02:04:54.910Z,6.05
2023-01-11T02:05:04.911Z,6.03
2023-01-11T02:05:14.900Z,6.03
2023-01-11T02:05:24.959Z,6.05
2023-01-11T02:05:34.848Z,6.05
2023-01-11T02:05:44.894Z,6.05
2023-01-11T02:05:54.914Z,6.05
2023-01-11T02:06:04.906Z,6.06
2023-01-11T02:06:14.895Z,6.06
2023-01-11T02:06:24.963Z,6.06
2023-01-11T02:06:35.049Z,6.05
2023-01-11T02:06:45.068Z,6.08
2023-01-11T02:06:54.970Z,6.08
2023-01-11T02:07:04.861Z,6.06
2023-01-11T02:07:14.868Z,6.06
2023-01-11T02:07:24.934Z,6.08
2023-01-11T02:07:34.923Z,6.06
2023-01-11T02:07:44.939Z,6.08
2023-01-11T02:07:54.927Z,6.06
2023-01-11T02:08:04.924Z,6.08
2023-01-11T02:08:14.934Z,6.08
2023-01-11T02:08:24.927Z,6.08
2023-01-11T02:08:34.892Z,6.06
2023-01-11T02:08:44.942Z,6.08
2023-01-11T02:08:54.933Z,6.08
2023-01-11T02:09:04.907Z,6.10
2023-01-11T02:09:14.877Z,6.08
2023-01-11T02:09:24.844Z,6.08
2023-01-11T02:09:34.846Z,6.10
2023-01-11T02:09:44.830Z,6.08
2023-01-11T02:09:54.882Z,6.08
2023-01-11T02:10:04.970Z,6.08
2023-01-11T02:10:14.965Z,6.08
2023-01-11T02:10:24.906Z,6.06
2023-01-11T02:10:34.938Z,6.06
2023-01-11T02:10:44.912Z,6.08
2023-01-11T02:10:54.902Z,6.08
2023-01-11T02:11:04.967Z,6.08
2023-01-11T02:11:14.850Z,6.06
2023-01-11T02:11:24.964Z,6.08
2023-01-11T02:11:34.842Z,6.06
2023-01-11T02:11:44.879Z,6.06
2023-01-11T02:11:54.944Z,6.05
2023-01-11T02:12:04.897Z,6.06
2023-01-11T02:12:14.964Z,6.05
2023-01-11T02:12:24.905Z,6.05
2023-01-11T02:12:34.953Z,6.05
2023-01-11T02:12:44.846Z,6.05
2023-01-11T02:12:54.926Z,6.03
2023-01-11T02:13:04.855Z,6.05